createdAt,value
2022-12-03T00:00:16.442Z,2.30
2022-12-03T00:01:04.771Z,2.27
2022-12-03T00:02:03.514Z,2.27
2022-12-03T00:03:11.307Z,2.28
2022-12-03T00:04:04.043Z,2.26
2022-12-03T00:05:04.584Z,2.26
2022-12-03T00:06:16.152Z,2.26
2022-12-03T00:07:08.031Z,2.23
2022-12-03T00:08:06.461Z,2.22
2022-12-03T00:09:09.032Z,2.20
2022-12-03T00:10:04.133Z,2.19
2022-12-03T00:11:07.667Z,2.17
2022-12-03T00:12:09.094Z,2.16
2022-12-03T00:13:10.825Z,2.15
2022-12-03T00:14:02.806Z,2.12
2022-12-03T00:15:06.021Z,2.13
2022-12-03T00:16:04.175Z,2.10
2022-12-03T00:17:05.498Z,2.10
2022-12-03T00:18:24.935Z,2.10
2022-12-03T00:19:06.639Z,2.09
2022-12-03T00:20:03.256Z,2.08
2022-12-03T00:21:01.505Z,2.06
2022-12-03T00:22:05.442Z,2.06
2022-12-03T00:23:04.469Z,2.02
2022-12-03T00:24:32.945Z,2.01
2022-12-03T00:25:06.491Z,1.99
2022-12-03T00:26:07.867Z,1.99
2022-12-03T00:27:07.549Z,1.98
2022-12-03T00:28:08.930Z,1.98
2022-12-03T00:29:05.526Z,1.98
2022-12-03T00:30:04.095Z,1.98
2022-12-03T00:31:03.883Z,1.98
2022-12-03T00:32:04.934Z,1.98
2022-12-03T00:33:05.945Z,1.99
2022-12-03T00:34:01.535Z,1.99
2022-12-03T00:35:02.547Z,1.99
2022-12-03T00:36:01.162Z,1.98
2022-12-03T00:37:07.292Z,1.97
2022-12-03T00:38:05.014Z,1.97
2022-12-03T00:39:07.755Z,1.94
2022-12-03T00:40:02.589Z,1.91
2022-12-03T00:41:12.074Z,1.91
2022-12-03T00:42:05.827Z,1.91
2022-12-03T00:43:01.938Z,1.91
2022-12-03T00:44:12.537Z,1.91
2022-12-03T00:45:02.186Z,1.90
2022-12-03T00:46:05.885Z,1.90
2022-12-03T00:47:04.965Z,1.90
2022-12-03T00:48:04.012Z,1.89
2022-12-03T00:49:01.823Z,1.89
2022-12-03T00:50:02.283Z,1.87
2022-12-03T00:51:03.953Z,1.85
2022-12-03T00:52:00.314Z,1.85
2022-12-03T00:53:00.773Z,1.83
2022-12-03T00:54:04.885Z,1.82
2022-12-03T00:55:06.566Z,1.82
2022-12-03T00:56:03.914Z,1.79
2022-12-03T00:57:04.485Z,1.79
2022-12-03T00:58:02.891Z,1.79
2022-12-03T00:59:15.629Z,1.76
2022-12-03T01:00:08.839Z,1.75
2022-12-03T01:01:03.056Z,1.75
2022-12-03T01:02:08.290Z,1.73
2022-12-03T01:03:13.706Z,1.71
2022-12-03T01:09:03.173Z,1.72
2022-12-03T01:10:02.289Z,1.72
2022-12-03T01:10:59.765Z,1.72
2022-12-03T01:12:24.719Z,1.71
2022-12-03T01:13:10.594Z,1.69
2022-12-03T01:19:58.914Z,1.68
2022-12-03T01:20:52.491Z,1.64
2022-12-03T01:21:48.418Z,1.62
2022-12-03T01:23:02.438Z,1.62
2022-12-03T01:24:00.017Z,1.62
2022-12-03T01:24:54.414Z,1.60
2022-12-03T01:26:05.515Z,1.60
2022-12-03T01:29:00.435Z,1.58
2022-12-03T01:29:40.573Z,1.55
2022-12-03T01:30:49.990Z,1.55
2022-12-03T01:31:42.778Z,1.54
2022-12-03T01:33:07.978Z,1.52
2022-12-03T01:33:43.149Z,1.51
2022-12-03T01:34:42.334Z,1.51
2022-12-03T01:35:45.275Z,1.50
2022-12-03T01:36:40.120Z,1.46
2022-12-03T01:37:39.265Z,1.46
2022-12-03T01:38:40.502Z,1.44
2022-12-03T01:44:06.316Z,1.39
2022-12-03T01:44:49.212Z,1.37
2022-12-03T01:45:46.953Z,1.37
2022-12-03T01:46:46.656Z,1.36
2022-12-03T01:47:52.257Z,1.36
2022-12-03T01:50:59.721Z,1.37
2022-12-03T01:51:42.545Z,1.36
2022-12-03T01:52:47.339Z,1.34
2022-12-03T01:55:39.760Z,1.33
2022-12-03T01:56:32.712Z,1.33
2022-12-03T01:57:40.585Z,1.32
2022-12-03T01:58:42.838Z,1.32
2022-12-03T01:59:47.886Z,1.28
2022-12-03T02:00:32.194Z,1.28
2022-12-03T02:01:22.896Z,1.26
2022-12-03T02:02:31.989Z,1.25
2022-12-03T02:03:32.481Z,1.24
2022-12-03T02:04:31.092Z,1.21
2022-12-03T02:05:29.951Z,1.22
2022-12-03T02:06:26.064Z,1.22
2022-12-03T02:07:43.785Z,1.19
2022-12-03T02:08:22.109Z,1.19
2022-12-03T02:09:22.119Z,1.19
2022-12-03T02:10:21.281Z,1.18
2022-12-03T02:11:18.684Z,1.18
2022-12-03T02:12:19.690Z,1.18
2022-12-03T02:13:39.026Z,1.18
2022-12-03T02:14:23.758Z,1.15
2022-12-03T02:15:20.055Z,1.15
2022-12-03T02:16:24.901Z,1.12
2022-12-03T02:17:26.081Z,1.14
2022-12-03T02:18:27.011Z,1.10
2022-12-03T02:19:32.863Z,1.10
2022-12-03T02:20:22.494Z,1.10
2022-12-03T02:21:19.588Z,1.08
2022-12-03T02:22:18.939Z,1.07
2022-12-03T02:23:24.589Z,1.06
2022-12-03T02:24:25.481Z,1.03
2022-12-03T02:25:22.202Z,1.01
2022-12-03T02:26:25.736Z,1.03
2022-12-03T02:27:19.564Z,1.01
2022-12-03T02:28:21.957Z,1.00
2022-12-03T02:29:20.733Z,1.00
2022-12-03T02:30:19.972Z,1.00
2022-12-03T02:31:17.732Z,0.98
2022-12-03T02:32:19.837Z,1.00
2022-12-03T02:33:22.335Z,1.00
2022-12-03T02:34:27.219Z,1.01
2022-12-03T02:35:24.146Z,1.00
2022-12-03T02:36:21.069Z,1.00
2022-12-03T02:37:22.757Z,1.00
2022-12-03T02:38:28.272Z,0.97
2022-12-03T02:39:21.249Z,0.97
2022-12-03T02:40:17.353Z,0.96
2022-12-03T02:41:28.006Z,0.94
2022-12-03T02:42:19.561Z,0.96
2022-12-03T02:43:26.805Z,0.94
2022-12-03T02:44:25.049Z,0.96
2022-12-03T02:45:22.556Z,0.92
2022-12-03T02:46:23.686Z,0.96
2022-12-03T02:47:24.913Z,0.96
2022-12-03T02:48:19.076Z,0.96
2022-12-03T02:49:24.798Z,0.94
2022-12-03T02:50:26.784Z,0.94
2022-12-03T02:51:20.511Z,0.96
2022-12-03T02:52:31.289Z,0.92
2022-12-03T02:53:23.089Z,0.92
2022-12-03T02:54:30.734Z,0.92
2022-12-03T02:55:21.594Z,0.92
2022-12-03T02:56:26.978Z,0.94
2022-12-03T02:57:20.153Z,0.94
2022-12-03T02:58:21.432Z,0.92
2022-12-03T02:59:20.440Z,0.92
2022-12-03T03:00:25.717Z,0.92
2022-12-03T03:01:25.212Z,0.90
2022-12-03T03:02:17.164Z,0.94
2022-12-03T03:03:19.294Z,0.92
2022-12-03T03:04:21.569Z,0.92
2022-12-03T03:05:27.217Z,0.92
2022-12-03T03:06:21.508Z,0.90
2022-12-03T03:07:28.601Z,0.90
2022-12-03T03:08:25.255Z,0.89
2022-12-03T03:09:23.450Z,0.89
2022-12-03T03:10:23.713Z,0.88
2022-12-03T03:11:20.348Z,0.88
2022-12-03T03:12:18.675Z,0.88
2022-12-03T03:13:16.770Z,0.88
2022-12-03T03:14:45.146Z,0.86
2022-12-03T03:15:18.363Z,0.86
2022-12-03T03:16:40.425Z,0.85
2022-12-03T03:17:28.891Z,0.83
2022-12-03T03:18:24.098Z,0.82
2022-12-03T03:19:32.925Z,0.80
2022-12-03T03:20:23.155Z,0.82
2022-12-03T03:21:18.864Z,0.80
2022-12-03T03:22:19.906Z,0.79
2022-12-03T03:23:22.611Z,0.78
2022-12-03T03:27:27.006Z,0.75
2022-12-03T03:28:27.593Z,0.71
2022-12-03T03:32:18.567Z,0.71
2022-12-03T03:33:16.588Z,0.70
2022-12-03T03:34:25.129Z,0.70
2022-12-03T03:35:12.474Z,0.70
2022-12-03T03:36:09.995Z,0.67
2022-12-03T03:37:22.129Z,0.65
2022-12-03T03:38:29.260Z,0.65
2022-12-03T03:39:11.655Z,0.64
2022-12-03T03:40:34.358Z,0.62
2022-12-03T03:41:22.407Z,0.61
2022-12-03T03:42:35.122Z,0.60
2022-12-03T03:46:47.560Z,0.52
2022-12-03T04:11:33.159Z,0.36
2022-12-03T04:11:53.794Z,0.36
2022-12-03T04:13:05.336Z,0.33
2022-12-03T04:14:03.258Z,0.31
2022-12-03T04:14:53.158Z,0.31
2022-12-03T04:15:58.239Z,0.33
2022-12-03T04:16:57.211Z,0.31
2022-12-03T04:17:59.458Z,0.31
2022-12-03T04:18:53.451Z,0.30
2022-12-03T04:20:02.022Z,0.31
2022-12-03T04:20:57.646Z,0.31
2022-12-03T04:21:52.255Z,0.30
2022-12-03T04:22:55.872Z,0.30
2022-12-03T04:23:51.673Z,0.31
2022-12-03T04:24:59.761Z,0.30
2022-12-03T04:25:52.728Z,0.31
2022-12-03T04:26:56.365Z,0.30
2022-12-03T04:27:53.341Z,0.31
2022-12-03T04:28:51.330Z,0.31
2022-12-03T04:29:53.730Z,0.28
2022-12-03T04:30:52.862Z,0.28
2022-12-03T04:36:23.526Z,0.30
2022-12-03T04:37:19.664Z,0.31
2022-12-03T04:38:18.634Z,0.31
2022-12-03T04:39:17.441Z,0.31
2022-12-03T04:40:23.503Z,0.31
2022-12-03T04:41:18.272Z,0.31
2022-12-03T04:42:15.299Z,0.33
2022-12-03T04:43:19.000Z,0.33
2022-12-03T04:44:13.898Z,0.34
2022-12-03T04:45:35.512Z,0.34
2022-12-03T04:46:19.087Z,0.34
2022-12-03T04:47:20.203Z,0.34
2022-12-03T04:48:18.504Z,0.34
2022-12-03T04:49:14.451Z,0.36
2022-12-03T04:50:38.335Z,0.34
2022-12-03T04:51:15.085Z,0.36
2022-12-03T04:52:22.484Z,0.36
2022-12-03T04:54:04.473Z,0.36
2022-12-03T04:55:07.133Z,0.33
2022-12-03T04:56:01.730Z,0.34
2022-12-03T04:57:02.487Z,0.33
2022-12-03T04:58:10.227Z,0.34
2022-12-03T04:59:04.975Z,0.34
2022-12-03T05:00:01.879Z,0.31
2022-12-03T05:01:00.727Z,0.30
2022-12-03T05:02:09.718Z,0.27
2022-12-03T05:03:07.751Z,0.27
2022-12-03T05:04:27.551Z,0.25
2022-12-03T05:05:08.724Z,0.24
2022-12-03T05:06:00.839Z,0.24
2022-12-03T05:07:01.035Z,0.24
2022-12-03T05:08:07.794Z,0.23
2022-12-03T05:09:05.721Z,0.23
2022-12-03T05:10:36.983Z,0.20
2022-12-03T05:15:03.092Z,0.18
2022-12-03T05:15:56.496Z,0.15
2022-12-03T05:17:04.817Z,0.15
2022-12-03T05:17:57.887Z,0.15
2022-12-03T05:19:10.830Z,0.15
2022-12-03T05:19:56.860Z,0.15
2022-12-03T05:20:57.308Z,0.12
2022-12-03T05:21:56.331Z,0.12
2022-12-03T05:22:56.555Z,0.13
2022-12-03T05:24:00.325Z,0.12
2022-12-03T05:25:07.113Z,0.12
2022-12-03T05:27:09.006Z,0.13
2022-12-03T05:28:19.767Z,0.12
2022-12-03T05:29:14.291Z,0.12
2022-12-03T05:30:09.495Z,0.13
2022-12-03T05:31:07.612Z,0.12
2022-12-03T05:32:09.205Z,0.12
2022-12-03T05:33:05.894Z,0.12
2022-12-03T05:34:34.281Z,0.12
2022-12-03T05:35:10.804Z,0.12
2022-12-03T05:36:10.212Z,0.12
2022-12-03T05:37:10.306Z,0.12
2022-12-03T05:38:14.810Z,0.12
2022-12-03T05:39:15.453Z,0.10
2022-12-03T05:40:11.157Z,0.10
2022-12-03T05:41:41.947Z,0.10
2022-12-03T05:42:32.252Z,0.09
2022-12-03T05:43:15.451Z,0.09
2022-12-03T05:44:10.467Z,0.07
2022-12-03T05:45:21.539Z,0.09
2022-12-03T05:46:09.289Z,0.06
2022-12-03T05:47:13.644Z,0.09
2022-12-03T05:48:09.832Z,0.07
2022-12-03T05:52:54.168Z,0.06
2022-12-03T05:53:54.277Z,0.05
2022-12-03T05:57:26.042Z,0.09
2022-12-03T05:58:07.294Z,0.07
2022-12-03T05:59:04.862Z,0.07
2022-12-03T06:00:04.615Z,0.09
2022-12-03T06:01:06.338Z,0.06
2022-12-03T06:02:11.292Z,0.06
2022-12-03T06:03:06.989Z,0.05
2022-12-03T06:05:01.769Z,0.07
2022-12-03T06:07:52.126Z,0.07
2022-12-03T06:08:28.389Z,0.07
2022-12-03T06:09:30.159Z,0.07
2022-12-03T06:10:25.910Z,0.10
2022-12-03T06:11:26.145Z,0.09
2022-12-03T06:12:27.349Z,0.10
2022-12-03T06:13:30.161Z,0.13
2022-12-03T06:14:32.013Z,0.13
2022-12-03T06:15:30.688Z,0.16
2022-12-03T06:16:28.714Z,0.16
2022-12-03T06:17:26.460Z,0.18
2022-12-03T06:18:25.111Z,0.18
2022-12-03T06:19:26.579Z,0.20
2022-12-03T06:20:34.439Z,0.20
2022-12-03T06:21:27.757Z,0.20
2022-12-03T06:22:33.929Z,0.20
2022-12-03T06:23:30.729Z,0.20
2022-12-03T06:24:30.454Z,0.20
2022-12-03T06:25:33.482Z,0.21
2022-12-03T06:26:29.527Z,0.20
2022-12-03T06:27:26.287Z,0.23
2022-12-03T06:28:28.809Z,0.23
2022-12-03T06:29:26.042Z,0.24
2022-12-03T06:30:26.710Z,0.24
2022-12-03T06:31:25.760Z,0.24
2022-12-03T06:32:26.542Z,0.24
2022-12-03T06:33:26.645Z,0.23
2022-12-03T06:34:27.413Z,0.23
2022-12-03T06:35:27.477Z,0.21
2022-12-03T06:36:27.307Z,0.20
2022-12-03T06:37:26.728Z,0.20
2022-12-03T06:38:52.706Z,0.18
2022-12-03T06:39:24.390Z,0.16
2022-12-03T06:40:24.405Z,0.15
2022-12-03T06:41:26.620Z,0.15
2022-12-03T06:42:30.176Z,0.13
2022-12-03T06:43:31.063Z,0.13
2022-12-03T06:44:30.023Z,0.12
2022-12-03T06:45:28.768Z,0.12
2022-12-03T06:46:26.526Z,0.09
2022-12-03T06:47:28.245Z,0.09
2022-12-03T06:48:25.391Z,0.07
2022-12-03T06:49:27.086Z,0.06
2022-12-03T06:50:29.956Z,0.05
2022-12-03T06:51:34.300Z,0.06
2022-12-03T06:52:29.176Z,0.05
2022-12-03T06:53:25.225Z,0.05
2022-12-03T06:54:25.880Z,0.06
2022-12-03T06:55:24.202Z,0.06
2022-12-03T06:56:24.641Z,0.06
2022-12-03T06:57:24.334Z,0.06
2022-12-03T06:58:24.322Z,0.06
2022-12-03T06:59:24.442Z,0.05
2022-12-03T07:00:24.237Z,0.06
2022-12-03T07:01:24.335Z,0.06
2022-12-03T07:02:24.496Z,0.05
2022-12-03T07:03:24.137Z,0.03
2022-12-03T07:04:24.278Z,0.02
2022-12-03T07:05:24.208Z,0.00
2022-12-03T07:06:23.981Z,0.00
2022-12-03T07:07:25.070Z,-0.01
2022-12-03T07:08:24.289Z,-0.01
2022-12-03T07:09:24.097Z,-0.01
2022-12-03T07:10:24.139Z,-0.01
2022-12-03T07:11:24.014Z,-0.01
2022-12-03T07:12:25.074Z,-0.04
2022-12-03T07:13:24.139Z,-0.04
2022-12-03T07:14:24.013Z,-0.04
2022-12-03T07:15:24.936Z,-0.04
2022-12-03T07:16:25.671Z,-0.01
2022-12-03T07:17:24.039Z,-0.01
2022-12-03T07:18:24.108Z,0.00
2022-12-03T07:19:29.043Z,-0.01
2022-12-03T07:20:24.896Z,-0.01
2022-12-03T07:21:23.874Z,0.00
2022-12-03T07:22:24.888Z,-0.01
2022-12-03T07:23:23.994Z,-0.01
2022-12-03T07:24:23.791Z,-0.01
2022-12-03T07:25:24.017Z,-0.01
2022-12-03T07:26:23.816Z,-0.01
2022-12-03T07:27:23.893Z,-0.04
2022-12-03T07:28:24.348Z,-0.01
2022-12-03T07:29:23.816Z,-0.04
2022-12-03T07:30:23.724Z,-0.01
2022-12-03T07:31:23.822Z,-0.04
2022-12-03T07:32:24.764Z,-0.04
2022-12-03T07:33:23.935Z,-0.04
2022-12-03T07:34:23.664Z,-0.04
2022-12-03T07:35:23.773Z,-0.04
2022-12-03T07:36:23.586Z,-0.04
2022-12-03T07:37:23.695Z,-0.01
2022-12-03T07:38:23.618Z,-0.01
2022-12-03T07:39:23.598Z,0.00
2022-12-03T07:40:23.782Z,0.00
2022-12-03T07:41:23.711Z,0.02
2022-12-03T07:42:23.504Z,0.05
2022-12-03T07:43:23.536Z,0.05
2022-12-03T07:44:23.557Z,0.07
2022-12-03T07:45:23.608Z,0.07
2022-12-03T07:46:23.949Z,0.09
2022-12-03T07:47:23.538Z,0.10
2022-12-03T07:48:23.753Z,0.09
2022-12-03T07:49:23.562Z,0.12
2022-12-03T07:50:23.471Z,0.10
2022-12-03T07:51:28.814Z,0.15
2022-12-03T07:52:24.498Z,0.16
2022-12-03T07:53:23.386Z,0.18
2022-12-03T07:54:24.301Z,0.21
2022-12-03T07:55:23.475Z,0.24
2022-12-03T07:56:23.734Z,0.27
2022-12-03T07:57:23.411Z,0.28
2022-12-03T07:58:23.643Z,0.31
2022-12-03T07:59:23.307Z,0.33
2022-12-03T08:00:23.318Z,0.38
2022-12-03T08:01:23.375Z,0.39
2022-12-03T08:02:23.292Z,0.42
2022-12-03T08:03:23.653Z,0.46
2022-12-03T08:04:23.377Z,0.48
2022-12-03T08:05:23.473Z,0.49
2022-12-03T08:06:25.585Z,0.49
2022-12-03T08:07:23.363Z,0.52
2022-12-03T08:08:23.579Z,0.53
2022-12-03T08:09:23.287Z,0.57
2022-12-03T08:10:26.178Z,0.57
2022-12-03T08:13:38.177Z,0.58
2022-12-03T08:14:03.225Z,0.58
2022-12-03T08:15:04.206Z,0.64
2022-12-03T08:16:04.828Z,0.65
2022-12-03T08:17:03.101Z,0.65
2022-12-03T08:18:06.668Z,0.68
2022-12-03T08:19:06.399Z,0.71
2022-12-03T08:20:05.165Z,0.72
2022-12-03T08:21:01.363Z,0.75
2022-12-03T08:22:02.700Z,0.79
2022-12-03T08:23:07.454Z,0.83
2022-12-03T08:24:05.213Z,0.85
2022-12-03T08:25:02.894Z,0.86
2022-12-03T08:26:03.452Z,0.90
2022-12-03T08:27:05.468Z,0.94
2022-12-03T08:28:07.214Z,0.98
2022-12-03T08:29:04.676Z,1.00
2022-12-03T08:30:04.747Z,1.04
2022-12-03T08:31:04.378Z,1.08
2022-12-03T08:32:07.531Z,1.12
2022-12-03T08:33:04.026Z,1.16
2022-12-03T08:34:05.650Z,1.19
2022-12-03T08:35:06.207Z,1.21
2022-12-03T08:36:04.855Z,1.22
2022-12-03T08:37:03.085Z,1.25
2022-12-03T08:38:01.262Z,1.29
2022-12-03T08:39:04.017Z,1.33
2022-12-03T08:40:02.644Z,1.39
2022-12-03T08:41:05.398Z,1.40
2022-12-03T08:42:05.990Z,1.44
2022-12-03T08:43:04.878Z,1.44
2022-12-03T08:44:07.535Z,1.46
2022-12-03T08:45:05.580Z,1.43
2022-12-03T08:46:03.662Z,1.42
2022-12-03T08:47:06.729Z,1.42
2022-12-03T08:48:05.415Z,1.42
2022-12-03T08:49:04.436Z,1.42
2022-12-03T08:50:05.594Z,1.44
2022-12-03T08:51:04.460Z,1.44
2022-12-03T08:52:03.873Z,1.42
2022-12-03T08:53:01.221Z,1.39
2022-12-03T08:54:04.225Z,1.39
2022-12-03T08:55:02.820Z,1.40
2022-12-03T08:56:01.834Z,1.42
2022-12-03T08:57:05.262Z,1.42
2022-12-03T08:58:05.575Z,1.42
2022-12-03T08:59:06.137Z,1.44
2022-12-03T09:00:27.402Z,1.46
2022-12-03T09:01:08.506Z,1.51
2022-12-03T09:02:03.283Z,1.54
2022-12-03T09:03:05.201Z,1.55
2022-12-03T09:06:03.103Z,1.62
2022-12-03T09:06:34.656Z,1.68
2022-12-03T09:07:32.986Z,1.69
2022-12-03T09:08:32.175Z,1.68
2022-12-03T09:09:34.778Z,1.68
2022-12-03T09:10:34.139Z,1.73
2022-12-03T09:11:36.979Z,1.75
2022-12-03T09:12:34.810Z,1.75
2022-12-03T09:13:33.609Z,1.73
2022-12-03T09:16:36.576Z,1.75
2022-12-03T09:17:30.605Z,1.79
2022-12-03T09:18:23.097Z,1.80
2022-12-03T09:19:28.795Z,1.83
2022-12-03T09:20:29.888Z,1.87
2022-12-03T09:21:27.356Z,1.94
2022-12-03T09:22:25.177Z,1.99
2022-12-03T09:23:24.917Z,2.02
2022-12-03T09:24:32.029Z,2.06
2022-12-03T09:25:33.042Z,2.12
2022-12-03T09:26:26.339Z,2.15
2022-12-03T09:27:24.649Z,2.17
2022-12-03T09:28:26.596Z,2.15
2022-12-03T09:29:27.355Z,2.09
2022-12-03T09:30:28.052Z,2.09
2022-12-03T09:31:27.821Z,2.10
2022-12-03T09:32:24.562Z,2.12
2022-12-03T09:33:27.826Z,2.15
2022-12-03T09:34:29.906Z,2.15
2022-12-03T09:35:30.923Z,2.12
2022-12-03T09:36:28.893Z,2.10
2022-12-03T09:37:25.571Z,2.09
2022-12-03T09:38:29.883Z,2.10
2022-12-03T09:39:24.559Z,2.09
2022-12-03T09:40:22.420Z,2.06
2022-12-03T09:41:26.057Z,2.06
2022-12-03T09:42:30.540Z,2.08
2022-12-03T09:43:33.543Z,2.13
2022-12-03T09:44:29.552Z,2.16
2022-12-03T09:45:30.517Z,2.23
2022-12-03T09:46:24.977Z,2.26
2022-12-03T09:47:27.661Z,2.30
2022-12-03T09:48:26.147Z,2.34
2022-12-03T09:49:25.791Z,2.35
2022-12-03T09:50:25.292Z,2.35
2022-12-03T09:51:26.449Z,2.37
2022-12-03T09:52:27.024Z,2.38
2022-12-03T09:53:23.377Z,2.41
2022-12-03T09:54:23.957Z,2.45
2022-12-03T09:55:24.756Z,2.46
2022-12-03T09:56:30.218Z,2.51
2022-12-03T09:57:25.219Z,2.51
2022-12-03T09:58:29.237Z,2.52
2022-12-03T09:59:26.305Z,2.56
2022-12-03T10:00:25.617Z,2.59
2022-12-03T10:01:32.856Z,2.66
2022-12-03T10:02:29.914Z,2.67
2022-12-03T10:03:29.833Z,2.66
2022-12-03T10:04:27.737Z,2.67
2022-12-03T10:05:28.129Z,2.74
2022-12-03T10:06:25.136Z,2.81
2022-12-03T10:07:25.637Z,2.87
2022-12-03T10:08:26.101Z,2.89
2022-12-03T10:09:26.506Z,2.94
2022-12-03T10:10:27.176Z,2.98
2022-12-03T10:11:24.077Z,2.98
2022-12-03T10:12:24.964Z,3.00
2022-12-03T10:13:28.171Z,3.07
2022-12-03T10:14:26.850Z,3.10
2022-12-03T10:15:25.932Z,3.10
2022-12-03T10:16:25.239Z,3.18
2022-12-03T10:17:25.114Z,3.23
2022-12-03T10:18:43.787Z,3.25
2022-12-03T10:19:27.421Z,3.27
2022-12-03T10:20:26.804Z,3.30
2022-12-03T10:21:25.359Z,3.30
2022-12-03T10:22:24.881Z,3.28
2022-12-03T10:23:24.250Z,3.27
2022-12-03T10:24:25.002Z,3.24
2022-12-03T10:25:25.063Z,3.21
2022-12-03T10:26:25.741Z,3.23
2022-12-03T10:27:23.044Z,3.24
2022-12-03T10:28:23.711Z,3.30
2022-12-03T10:29:27.020Z,3.31
2022-12-03T10:30:27.508Z,3.31
2022-12-03T10:31:24.698Z,3.42
2022-12-03T10:32:27.272Z,3.43
2022-12-03T10:33:25.970Z,3.44
2022-12-03T10:34:28.096Z,3.43
2022-12-03T10:35:27.791Z,3.43
2022-12-03T10:36:27.292Z,3.44
2022-12-03T10:37:26.155Z,3.50
2022-12-03T10:38:25.299Z,3.53
2022-12-03T10:39:24.770Z,3.61
2022-12-03T10:40:27.421Z,3.68
2022-12-03T10:41:23.306Z,3.71
2022-12-03T10:42:28.562Z,3.78
2022-12-03T10:43:24.482Z,3.76
2022-12-03T10:44:30.882Z,3.75
2022-12-03T10:45:30.008Z,3.71
2022-12-03T10:46:25.356Z,3.68
2022-12-03T10:47:30.641Z,3.65
2022-12-03T10:48:28.975Z,3.61
2022-12-03T10:49:23.114Z,3.47
2022-12-03T10:50:25.862Z,3.43
2022-12-03T10:51:27.608Z,3.36
2022-12-03T10:52:26.935Z,3.33
2022-12-03T10:53:23.995Z,3.28
2022-12-03T10:54:23.140Z,3.24
2022-12-03T10:55:23.757Z,3.25
2022-12-03T10:56:26.189Z,3.23
2022-12-03T10:57:27.283Z,3.25
2022-12-03T10:58:23.340Z,3.24
2022-12-03T10:59:28.086Z,3.31
2022-12-03T11:00:24.724Z,3.33
2022-12-03T11:01:24.800Z,3.39
2022-12-03T11:02:24.146Z,3.33
2022-12-03T11:03:25.061Z,3.31
2022-12-03T11:04:22.824Z,3.27
2022-12-03T11:05:23.331Z,3.20
2022-12-03T11:06:25.663Z,3.23
2022-12-03T11:07:21.097Z,3.27
2022-12-03T11:08:23.119Z,3.30
2022-12-03T11:09:23.840Z,3.28
2022-12-03T11:10:23.361Z,3.27
2022-12-03T11:11:25.165Z,3.31
2022-12-03T11:12:24.906Z,3.33
2022-12-03T11:13:25.551Z,3.30
2022-12-03T11:14:23.147Z,3.33
2022-12-03T11:15:46.191Z,3.40
2022-12-03T11:16:22.284Z,3.44
2022-12-03T11:17:27.144Z,3.49
2022-12-03T11:18:25.744Z,3.49
2022-12-03T11:19:23.365Z,3.39
2022-12-03T11:20:23.810Z,3.40
2022-12-03T11:21:23.808Z,3.33
2022-12-03T11:22:24.546Z,3.33
2022-12-03T11:23:25.379Z,3.34
2022-12-03T11:24:22.508Z,3.31
2022-12-03T11:25:28.602Z,3.31
2022-12-03T11:26:30.568Z,3.31
2022-12-03T11:27:24.208Z,3.28
2022-12-03T11:28:22.303Z,3.21
2022-12-03T11:29:21.285Z,3.16
2022-12-03T11:30:25.640Z,3.12
2022-12-03T11:31:25.539Z,3.09
2022-12-03T11:32:29.275Z,3.10
2022-12-03T11:33:22.384Z,3.13
2022-12-03T11:34:21.678Z,3.10
2022-12-03T11:35:22.498Z,3.10
2022-12-03T11:36:47.692Z,3.12
2022-12-03T11:37:27.871Z,3.10
2022-12-03T11:38:21.701Z,3.09
2022-12-03T11:39:22.757Z,3.09
2022-12-03T11:40:23.640Z,3.06
2022-12-03T11:41:25.475Z,3.05
2022-12-03T11:42:22.328Z,3.03
2022-12-03T11:43:22.346Z,3.02
2022-12-03T11:44:27.617Z,3.02
2022-12-03T11:45:26.680Z,3.00
2022-12-03T11:46:24.134Z,2.97
2022-12-03T11:47:24.826Z,2.97
2022-12-03T11:48:23.824Z,2.95
2022-12-03T11:49:24.997Z,2.94
2022-12-03T11:50:23.207Z,2.91
2022-12-03T11:51:23.238Z,2.87
2022-12-03T11:52:22.475Z,2.87
2022-12-03T11:53:27.118Z,2.87
2022-12-03T11:54:23.082Z,2.85
2022-12-03T11:55:24.902Z,2.81
2022-12-03T11:56:28.854Z,2.82
2022-12-03T11:57:22.901Z,2.85
2022-12-03T11:58:22.489Z,2.82
2022-12-03T11:59:21.661Z,2.79
2022-12-03T12:00:23.480Z,2.79
2022-12-03T12:01:24.053Z,2.77
2022-12-03T12:02:23.534Z,2.76
2022-12-03T12:03:21.411Z,2.74
2022-12-03T12:04:21.609Z,2.74
2022-12-03T12:05:28.244Z,2.71
2022-12-03T12:06:25.561Z,2.67
2022-12-03T12:07:23.470Z,2.63
2022-12-03T12:08:25.335Z,2.61
2022-12-03T12:09:25.407Z,2.61
2022-12-03T12:10:21.783Z,2.61
2022-12-03T12:11:26.972Z,2.61
2022-12-03T12:12:23.300Z,2.63
2022-12-03T12:13:21.513Z,2.66
2022-12-03T12:14:23.513Z,2.70
2022-12-03T12:15:21.255Z,2.71
2022-12-03T12:16:28.149Z,2.73
2022-12-03T12:17:28.547Z,2.67
2022-12-03T12:18:22.660Z,2.69
2022-12-03T12:19:22.770Z,2.67
2022-12-03T12:20:23.671Z,2.63
2022-12-03T12:21:21.657Z,2.64
2022-12-03T12:22:22.558Z,2.67
2022-12-03T12:23:20.548Z,2.64
2022-12-03T12:24:22.716Z,2.66
2022-12-03T12:25:30.268Z,2.64
2022-12-03T12:26:26.049Z,2.66
2022-12-03T12:27:21.711Z,2.63
2022-12-03T12:28:24.764Z,2.64
2022-12-03T12:29:20.736Z,2.69
2022-12-03T12:30:25.115Z,2.70
2022-12-03T12:31:23.757Z,2.69
2022-12-03T12:32:22.371Z,2.69
2022-12-03T12:33:22.319Z,2.64
2022-12-03T12:37:01.628Z,2.64
2022-12-03T12:37:26.845Z,2.67
2022-12-03T12:38:22.043Z,2.66
2022-12-03T12:39:22.248Z,2.66
2022-12-03T12:40:19.553Z,2.64
2022-12-03T12:41:24.649Z,2.63
2022-12-03T12:42:21.737Z,2.63
2022-12-03T12:43:24.298Z,2.63
2022-12-03T12:44:23.733Z,2.63
2022-12-03T12:45:20.650Z,2.64
2022-12-03T12:46:46.748Z,2.66
2022-12-03T12:47:28.439Z,2.67
2022-12-03T12:48:22.545Z,2.67
2022-12-03T12:49:18.805Z,2.67
2022-12-03T12:50:20.247Z,2.66
2022-12-03T12:51:23.373Z,2.64
2022-12-03T12:52:21.117Z,2.63
2022-12-03T12:53:21.781Z,2.66
2022-12-03T12:54:23.675Z,2.66
2022-12-03T12:55:21.525Z,2.67
2022-12-03T12:56:20.448Z,2.66
2022-12-03T12:57:22.003Z,2.64
2022-12-03T12:58:23.610Z,2.66
2022-12-03T12:59:21.544Z,2.66
2022-12-03T13:02:20.163Z,2.61
2022-12-03T13:02:54.971Z,2.56
2022-12-03T13:03:56.411Z,2.56
2022-12-03T13:04:57.416Z,2.53
2022-12-03T13:05:59.211Z,2.53
2022-12-03T13:07:02.040Z,2.51
2022-12-03T13:07:58.146Z,2.46
2022-12-03T13:08:56.109Z,2.44
2022-12-03T13:09:57.537Z,2.41
2022-12-03T13:10:55.995Z,2.40
2022-12-03T13:11:55.934Z,2.38
2022-12-03T13:12:56.411Z,2.35
2022-12-03T13:13:57.782Z,2.34
2022-12-03T13:15:00.429Z,2.31
2022-12-03T13:15:57.792Z,2.31
2022-12-03T13:16:59.001Z,2.31
2022-12-03T13:17:59.252Z,2.30
2022-12-03T13:18:54.810Z,2.28
2022-12-03T13:20:07.209Z,2.26
2022-12-03T13:20:56.340Z,2.27
2022-12-03T13:21:58.622Z,2.26
2022-12-03T13:22:56.379Z,2.23
2022-12-03T13:24:02.659Z,2.20
2022-12-03T13:24:54.852Z,2.20
2022-12-03T13:26:04.727Z,2.19
2022-12-03T13:26:58.645Z,2.19
2022-12-03T13:27:56.899Z,2.20
2022-12-03T13:28:56.107Z,2.22
2022-12-03T13:29:58.647Z,2.20
2022-12-03T13:31:01.194Z,2.16
2022-12-03T13:31:55.981Z,2.16
2022-12-03T13:32:57.963Z,2.16
2022-12-03T13:33:56.393Z,2.17
2022-12-03T13:35:19.539Z,2.17
2022-12-03T13:36:00.265Z,2.19
2022-12-03T13:36:58.804Z,2.20
2022-12-03T13:37:57.058Z,2.16
2022-12-03T13:38:57.918Z,2.16
2022-12-03T13:39:57.495Z,2.15
2022-12-03T13:40:59.771Z,2.13
2022-12-03T13:42:00.338Z,2.15
2022-12-03T13:42:54.431Z,2.13
2022-12-03T13:43:55.404Z,2.15
2022-12-03T13:44:56.302Z,2.15
2022-12-03T13:45:57.862Z,2.15
2022-12-03T13:46:54.942Z,2.13
2022-12-03T13:48:14.652Z,2.12
2022-12-03T13:49:03.640Z,2.10
2022-12-03T13:49:56.679Z,2.09
2022-12-03T13:51:00.505Z,2.08
2022-12-03T13:51:57.332Z,2.06
2022-12-03T13:52:55.431Z,2.06
2022-12-03T13:53:57.997Z,2.02
2022-12-03T13:54:59.370Z,2.02
2022-12-03T13:55:57.761Z,2.01
2022-12-03T13:56:56.259Z,2.01
2022-12-03T13:57:55.642Z,2.01
2022-12-03T13:58:56.176Z,2.01
2022-12-03T13:59:54.885Z,1.99
2022-12-03T14:01:00.846Z,2.01
2022-12-03T14:01:57.725Z,1.99
2022-12-03T14:02:56.028Z,1.99
2022-12-03T14:03:58.576Z,1.98
2022-12-03T14:05:00.251Z,1.97
2022-12-03T14:05:56.112Z,1.97
2022-12-03T14:06:56.519Z,1.94
2022-12-03T14:07:58.943Z,1.93
2022-12-03T14:08:55.312Z,1.90
2022-12-03T14:09:57.175Z,1.93
2022-12-03T14:11:00.510Z,1.90
2022-12-03T14:11:58.910Z,1.90
2022-12-03T14:12:57.520Z,1.89
2022-12-03T14:13:55.640Z,1.89
2022-12-03T14:14:59.995Z,1.87
2022-12-03T14:15:56.169Z,1.85
2022-12-03T14:17:01.074Z,1.85
2022-12-03T14:17:57.662Z,1.83
2022-12-03T14:19:15.950Z,1.83
2022-12-03T14:19:55.890Z,1.83
2022-12-03T14:20:56.571Z,1.82
2022-12-03T14:21:58.199Z,1.82
2022-12-03T14:22:59.790Z,1.80
2022-12-03T14:23:57.277Z,1.80
2022-12-03T14:24:55.353Z,1.79
2022-12-03T14:25:56.402Z,1.80
2022-12-03T14:26:57.038Z,1.78
2022-12-03T14:27:58.313Z,1.79
2022-12-03T14:28:56.431Z,1.79
2022-12-03T14:29:57.552Z,1.78
2022-12-03T14:30:55.148Z,1.78
2022-12-03T14:31:55.943Z,1.78
2022-12-03T14:33:00.034Z,1.76
2022-12-03T14:33:53.375Z,1.76
2022-12-03T14:35:05.282Z,1.75
2022-12-03T14:35:56.958Z,1.75
2022-12-03T14:36:54.913Z,1.73